Time;durP1;ratioP1;P1;durP2;ratioP2;P2;SDS_P1;SDS_P2;PMS_P1;PMS_P2;Temp;Humidity;BMP_temperature;BMP_pressure;BME280_temperature;BME280_humidity;BME280_pressure;Samples;Min_cycle;Max_cycle;Signal;HPM_P1;HPM_P2
2023/05/14 00:00:28;;;;;;;;;11.00;11.00;;;;;20.57;44.59;101474.50;4999165;28;45211;-38
2023/05/14 00:02:53;;;;;;;;;10.25;10.25;;;;;20.56;44.99;101467.53;4998297;28;49959;-39
2023/05/14 00:05:19;;;;;;;;;12.50;10.75;;;;;20.55;44.91;101466.69;4998579;28;45273;-38
2023/05/14 00:07:44;;;;;;;;;10.75;10.00;;;;;20.55;44.43;101465.84;4998726;28;45289;-38
2023/05/14 00:10:10;;;;;;;;;13.75;11.75;;;;;20.57;44.71;101463.13;4999065;28;45174;-38
2023/05/14 00:12:35;;;;;;;;;12.25;12.25;;;;;20.55;44.71;101466.69;5005688;28;46185;-39
2023/05/14 00:15:01;;;;;;;;;12.25;12.00;;;;;20.57;45.00;101468.41;5006460;28;45227;-39
2023/05/14 00:17:26;;;;;;;;;11.25;11.00;;;;;20.57;44.89;101473.66;4998834;28;45245;-39
2023/05/14 00:19:51;;;;;;;;;10.50;9.25;;;;;20.53;44.65;101462.41;4997455;28;45225;-39
2023/05/14 00:22:17;;;;;;;;;12.33;12.00;;;;;20.55;44.76;101461.41;4997464;28;63198;-38
2023/05/14 00:24:42;;;;;;;;;11.00;11.00;;;;;20.55;45.14;101463.22;4998432;28;47253;-38
2023/05/14 00:27:08;;;;;;;;;12.50;10.50;;;;;20.54;44.78;101464.97;4998218;28;45254;-38
2023/05/14 00:29:33;;;;;;;;;10.25;10.25;;;;;20.55;44.71;101471.09;4998385;28;45402;-39
2023/05/14 00:31:58;;;;;;;;;14.00;13.50;;;;;20.53;44.70;101465.88;4998161;28;45464;-38
2023/05/14 00:34:23;;;;;;;;;13.50;11.25;;;;;20.55;44.60;101466.69;5002854;28;45341;-39
2023/05/14 00:36:50;;;;;;;;;10.75;9.25;;;;;20.55;44.90;101457.94;5018526;28;45257;-38
2023/05/14 00:39:15;;;;;;;;;11.00;10.50;;;;;20.54;44.74;101451.81;5002482;28;45443;-39
2023/05/14 00:41:41;;;;;;;;;12.75;11.25;;;;;20.54;44.71;101446.53;4998298;28;46183;-39
2023/05/14 00:44:06;;;;;;;;;11.00;10.00;;;;;20.54;44.87;101453.59;4997952;28;45460;-39
2023/05/14 00:46:31;;;;;;;;;14.00;12.00;;;;;20.54;44.71;101448.34;4997440;28;59402;-39
2023/05/14 00:48:58;;;;;;;;;11.25;11.25;;;;;20.54;44.96;101445.69;5002022;28;45309;-39
2023/05/14 00:51:23;;;;;;;;;13.75;10.50;;;;;20.54;44.50;101443.91;5006008;28;45453;-39
2023/05/14 00:53:49;;;;;;;;;11.25;11.25;;;;;20.54;44.67;101446.53;5001379;28;45248;-39
2023/05/14 00:56:15;;;;;;;;;15.00;11.00;;;;;20.53;44.91;101441.34;4998239;28;45375;-39
2023/05/14 00:58:40;;;;;;;;;12.25;11.50;;;;;20.53;44.63;101436.09;4997927;28;45178;-39
2023/05/14 01:01:06;;;;;;;;;14.67;12.67;;;;;20.52;44.87;101429.09;4997137;28;57760;-38
2023/05/14 01:03:32;;;;;;;;;11.75;11.75;;;;;20.53;44.78;101436.94;4997430;28;45483;-39
2023/05/14 01:06:08;;;;;;;;;13.00;10.50;;;;;20.53;44.66;101446.63;4997677;28;45316;-39
2023/05/14 01:08:39;;;;;;;;;12.50;11.50;;;;;20.52;44.52;101434.38;4997770;28;45417;-39
2023/05/14 01:11:16;;;;;;;;;14.75;13.50;;;;;20.52;44.86;101439.63;4997357;28;46143;-39
2023/05/14 01:13:56;;;;;;;;;15.00;14.00;;;;;20.51;44.68;101433.50;4997379;28;45332;-39
2023/05/14 01:16:25;;;;;;;;;14.00;12.50;;;;;20.51;44.63;101432.66;4997240;28;45355;-38
2023/05/14 01:18:53;;;;;;;;;12.00;12.00;;;;;20.52;44.58;101432.56;4997684;28;45602;-37
2023/05/14 01:21:39;;;;;;;;;16.75;16.00;;;;;20.53;44.93;101436.09;4997500;28;45585;-38
2023/05/14 01:24:05;;;;;;;;;12.25;12.25;;;;;20.51;44.46;101438.78;4997960;28;45334;-38
2023/05/14 01:26:31;;;;;;;;;14.00;13.25;;;;;20.51;44.46;101445.81;5004067;28;45303;-38
2023/05/14 01:29:20;;;;;;;;;12.75;12.75;;;;;20.51;44.66;101444.03;5005762;28;45396;-39
2023/05/14 01:31:48;;;;;;;;;12.75;12.75;;;;;20.51;44.69;101438.78;5000760;28;46106;-39
2023/05/14 01:34:15;;;;;;;;;12.50;12.50;;;;;20.51;44.81;101440.56;5003764;28;45324;-38
2023/05/14 01:36:41;;;;;;;;;13.25;13.25;;;;;20.53;44.59;101446.63;5001625;28;45326;-39
2023/05/14 01:39:08;;;;;;;;;15.00;13.75;;;;;20.52;44.83;101445.75;5000578;28;45555;-38
2023/05/14 01:41:35;;;;;;;;;11.75;10.50;;;;;20.51;44.45;101433.50;4999688;28;47361;-38
2023/05/14 01:44:01;;;;;;;;;14.75;12.00;;;;;20.51;44.49;101437.94;5014087;28;45251;-40
2023/05/14 01:46:31;;;;;;;;;16.00;15.00;;;;;20.51;44.60;101435.28;4999462;28;45253;-38
2023/05/14 01:48:56;;;;;;;;;11.00;10.50;;;;;20.50;44.79;101431.81;4998281;28;45573;-39
2023/05/14 01:51:22;;;;;;;;;18.00;12.67;;;;;20.51;44.62;101437.94;5001567;28;67242;-38
2023/05/14 01:53:47;;;;;;;;;15.33;12.33;;;;;20.50;44.75;101437.09;5001252;28;62643;-39
2023/05/14 01:56:12;;;;;;;;;13.67;12.67;;;;;20.51;44.85;101440.56;5003551;28;66238;-39
2023/05/14 01:58:37;;;;;;;;;14.67;12.33;;;;;20.50;44.76;101442.34;4997866;28;47619;-38
2023/05/14 02:01:03;;;;;;;;;14.67;13.00;;;;;20.51;44.81;101448.47;4999471;28;67639;-39
2023/05/14 02:03:28;;;;;;;;;15.25;12.75;;;;;20.51;44.62;101448.47;5005894;28;45121;-39
2023/05/14 02:05:53;;;;;;;;;14.67;14.00;;;;;20.50;44.42;101441.47;5005322;28;52880;-38
2023/05/14 02:08:19;;;;;;;;;11.75;11.00;;;;;20.50;44.53;101444.13;5002110;28;45448;-38
2023/05/14 02:10:44;;;;;;;;;14.25;12.50;;;;;20.50;44.46;101444.13;5001234;28;45870;-38
2023/05/14 02:13:10;;;;;;;;;18.75;15.50;;;;;20.50;44.46;101444.13;4997970;28;45273;-38
2023/05/14 02:15:35;;;;;;;;;13.67;13.00;;;;;20.49;44.82;101440.63;4999536;28;57547;-39
2023/05/14 02:18:00;;;;;;;;;12.00;12.00;;;;;20.50;44.42;101444.13;5001120;28;60958;-39
2023/05/14 02:20:26;;;;;;;;;16.67;13.67;;;;;20.49;44.29;101440.63;4997308;28;69391;-38
2023/05/14 02:22:51;;;;;;;;;14.50;14.50;;;;;20.50;44.40;101441.47;4996750;28;45393;-38
2023/05/14 02:25:16;;;;;;;;;16.33;15.00;;;;;20.49;44.42;101434.50;4996562;28;60628;-39
2023/05/14 02:27:41;;;;;;;;;13.00;13.00;;;;;20.48;44.62;101433.66;4996362;28;57051;-39
2023/05/14 02:30:08;;;;;;;;;16.00;14.50;;;;;20.49;44.66;101430.09;4997757;28;46349;-39
2023/05/14 02:32:33;;;;;;;;;16.50;14.50;;;;;20.48;44.54;101435.44;4997029;28;45873;-40
2023/05/14 02:34:58;;;;;;;;;16.50;15.00;;;;;20.49;44.61;101440.63;5005120;28;45436;-39
2023/05/14 02:37:24;;;;;;;;;14.67;14.33;;;;;20.49;44.70;101434.50;4999666;28;45727;-38
2023/05/14 02:39:49;;;;;;;;;15.75;14.75;;;;;20.48;44.47;101435.44;5009420;28;45259;-38
2023/05/14 02:42:14;;;;;;;;;14.00;13.00;;;;;20.49;44.35;101439.78;5012418;28;45373;-39
2023/05/14 02:44:39;;;;;;;;;16.25;15.25;;;;;20.49;44.77;101430.09;5003052;28;45409;-38
2023/05/14 02:47:05;;;;;;;;;17.00;15.33;;;;;20.46;44.63;101435.50;4999661;28;51294;-40
2023/05/14 02:49:30;;;;;;;;;17.75;15.25;;;;;20.48;44.49;101433.66;4999512;28;46998;-39
2023/05/14 02:51:56;;;;;;;;;14.50;13.75;;;;;20.48;44.35;101427.53;4999499;28;45359;-40
2023/05/14 02:54:21;;;;;;;;;17.00;15.00;;;;;20.48;44.49;101435.44;5000540;28;45425;-39
2023/05/14 02:56:47;;;;;;;;;15.00;12.25;;;;;20.48;44.74;101430.16;5008051;28;45308;-38
2023/05/14 02:59:12;;;;;;;;;15.00;14.00;;;;;20.48;44.53;101427.53;5018821;28;46063;-39
2023/05/14 03:01:38;;;;;;;;;17.25;14.50;;;;;20.47;44.27;101428.44;5002660;28;45360;-41
2023/05/14 03:04:03;;;;;;;;;16.25;14.75;;;;;20.46;44.48;101430.25;4999632;28;45288;-39
2023/05/14 03:06:30;;;;;;;;;16.00;14.75;;;;;20.48;44.47;101432.78;4999717;28;45692;-40
2023/05/14 03:08:55;;;;;;;;;15.75;15.75;;;;;20.44;44.56;101423.34;4999697;28;47334;-40
2023/05/14 03:11:20;;;;;;;;;16.67;15.67;;;;;20.47;44.54;101429.31;5002799;28;60730;-38
2023/05/14 03:13:45;;;;;;;;;14.25;14.00;;;;;20.47;44.26;101429.31;5007358;28;45370;-39
2023/05/14 03:16:11;;;;;;;;;19.67;15.33;;;;;20.47;44.21;101431.94;5007006;28;58350;-38
2023/05/14 03:18:36;;;;;;;;;14.75;14.75;;;;;20.47;44.69;101431.06;5003022;28;45883;-39
2023/05/14 03:21:02;;;;;;;;;17.25;16.25;;;;;20.47;44.13;101431.06;4999163;28;45162;-39
2023/05/14 03:23:30;;;;;;;;;20.00;15.75;;;;;20.47;44.31;101433.72;4999369;28;45380;-39
2023/05/14 03:25:56;;;;;;;;;16.50;16.50;;;;;20.46;44.42;101430.25;4999254;28;45415;-40
2023/05/14 03:28:21;;;;;;;;;18.50;16.75;;;;;20.46;44.52;101429.38;4999179;28;47128;-40
2023/05/14 03:30:46;;;;;;;;;16.00;16.00;;;;;20.46;44.16;101435.50;4998213;28;69724;-40
2023/05/14 03:33:11;;;;;;;;;15.00;15.00;;;;;20.46;44.38;101432.00;4999104;28;45389;-39
2023/05/14 03:35:37;;;;;;;;;14.00;13.00;;;;;20.46;44.24;101435.50;4998378;28;56351;-42
2023/05/14 03:38:02;;;;;;;;;17.00;15.67;;;;;20.46;44.30;101432.00;4997979;28;71360;-40
2023/05/14 03:40:27;;;;;;;;;16.67;16.33;;;;;20.46;44.38;101432.88;4998348;28;56748;-40
2023/05/14 03:42:53;;;;;;;;;17.00;15.25;;;;;20.44;44.35;101428.63;4999372;28;45340;-39
2023/05/14 03:45:18;;;;;;;;;17.00;14.00;;;;;20.46;44.31;101429.38;4999174;28;45371;-38
2023/05/14 03:47:43;;;;;;;;;17.00;15.50;;;;;20.44;44.30;101421.56;4998828;28;46589;-38
2023/05/14 03:50:09;;;;;;;;;16.67;16.67;;;;;20.45;44.24;101427.69;5002210;28;69534;-39
2023/05/14 03:52:34;;;;;;;;;15.75;14.75;;;;;20.46;44.43;101434.63;5006909;28;45218;-40
2023/05/14 03:54:59;;;;;;;;;21.00;17.50;;;;;20.45;44.65;101427.69;5001918;28;45210;-41
2023/05/14 03:57:25;;;;;;;;;19.25;18.00;;;;;20.45;44.03;101430.31;4997563;28;46097;-42
2023/05/14 03:59:50;;;;;;;;;17.50;16.25;;;;;20.46;44.44;101434.63;4998125;28;54228;-40
2023/05/14 04:02:15;;;;;;;;;18.00;16.67;;;;;20.45;44.44;101431.16;4997775;28;66780;-42
2023/05/14 04:04:41;;;;;;;;;17.00;15.33;;;;;20.45;44.49;101432.94;4998117;28;49262;-39
2023/05/14 04:07:07;;;;;;;;;19.25;18.25;;;;;20.45;44.45;101436.44;4998175;28;46279;-42
2023/05/14 04:09:33;;;;;;;;;18.50;16.00;;;;;20.45;43.91;101433.78;4998381;28;45900;-41
2023/05/14 04:11:58;;;;;;;;;18.75;15.50;;;;;20.43;44.71;101429.53;4998498;28;45282;-39
2023/05/14 04:14:23;;;;;;;;;17.25;16.25;;;;;20.45;44.24;101438.22;4998909;28;45392;-40
2023/05/14 04:16:49;;;;;;;;;17.75;14.25;;;;;20.45;44.38;101435.59;4998275;28;46129;-38
2023/05/14 04:19:14;;;;;;;;;13.67;13.67;;;;;20.44;44.35;101436.50;4997423;28;67257;-39
2023/05/14 04:21:39;;;;;;;;;15.25;12.25;;;;;20.44;44.43;101433.88;4998538;28;45459;-39
2023/05/14 04:24:05;;;;;;;;;16.75;15.75;;;;;20.44;44.37;101428.63;4999361;28;45349;-38
2023/05/14 04:26:30;;;;;;;;;16.25;15.25;;;;;20.42;44.33;101433.94;5011377;28;46599;-39
2023/05/14 04:28:57;;;;;;;;;18.00;15.75;;;;;20.43;44.26;101433.00;5023324;28;44623;-41
2023/05/14 04:31:22;;;;;;;;;18.25;15.50;;;;;20.43;44.20;101433.00;5004056;28;45230;-38
2023/05/14 04:33:47;;;;;;;;;15.00;14.25;;;;;20.43;44.43;101438.28;5000438;28;45344;-41
2023/05/14 04:36:13;;;;;;;;;19.33;16.33;;;;;20.44;44.29;101441.78;4997602;28;61235;-41
2023/05/14 04:38:38;;;;;;;;;17.50;16.25;;;;;20.43;44.56;101442.69;4996674;28;45265;-39
2023/05/14 04:41:04;;;;;;;;;16.50;16.50;;;;;20.44;44.23;101447.03;5002169;28;45304;-40
2023/05/14 04:43:30;;;;;;;;;20.25;18.00;;;;;20.43;44.06;101450.59;5004296;28;45576;-40
2023/05/14 04:45:55;;;;;;;;;16.00;16.00;;;;;20.43;44.46;101445.34;5010627;28;46462;-41
2023/05/14 04:48:21;;;;;;;;;13.33;13.33;;;;;20.42;44.42;101446.25;5014087;28;53956;-41
2023/05/14 04:50:46;;;;;;;;;16.75;16.00;;;;;20.43;44.30;101445.34;4998991;28;45411;-43
2023/05/14 04:53:12;;;;;;;;;18.50;16.00;;;;;20.41;44.13;101440.13;4999097;28;45232;-42
2023/05/14 04:55:37;;;;;;;;;15.50;13.50;;;;;20.41;44.68;101448.00;5001572;28;46102;-41
2023/05/14 04:58:02;;;;;;;;;17.50;15.75;;;;;20.41;44.14;101440.13;5006598;28;45391;-40
2023/05/14 05:00:28;;;;;;;;;17.25;14.25;;;;;20.41;44.12;101434.84;5009972;28;45242;-41
2023/05/14 05:02:54;;;;;;;;;14.75;14.50;;;;;20.42;44.39;101435.72;5011423;28;45543;-39
2023/05/14 05:05:19;;;;;;;;;14.25;13.75;;;;;20.42;44.39;101440.97;5008916;28;47213;-42
2023/05/14 05:07:45;;;;;;;;;16.25;14.50;;;;;20.41;44.55;101434.84;5009347;28;44723;-41
2023/05/14 05:10:10;;;;;;;;;18.00;13.50;;;;;20.40;44.45;101435.78;5013303;28;45336;-38
2023/05/14 05:12:35;;;;;;;;;13.75;13.50;;;;;20.40;44.00;101433.13;5009891;28;45364;-38
2023/05/14 05:15:01;;;;;;;;;20.50;16.75;;;;;20.41;44.14;101437.47;5009177;28;63499;-39
2023/05/14 05:17:26;;;;;;;;;16.50;14.00;;;;;20.41;44.47;101432.22;5009258;28;45305;-39
2023/05/14 05:19:51;;;;;;;;;14.00;13.75;;;;;20.40;44.00;101430.50;4998506;28;45353;-39
2023/05/14 05:22:18;;;;;;;;;15.00;14.25;;;;;20.41;44.21;101432.22;4997907;28;45644;-40
2023/05/14 05:24:44;;;;;;;;;12.00;11.50;;;;;20.40;44.18;101425.25;4997559;28;46216;-39
2023/05/14 05:27:09;;;;;;;;;15.75;14.00;;;;;20.41;44.04;101434.00;4997459;28;45305;-39
2023/05/14 05:29:35;;;;;;;;;17.00;17.00;;;;;20.39;43.90;101432.28;4997440;28;45430;-39
2023/05/14 05:32:01;;;;;;;;;17.75;15.00;;;;;20.39;44.06;101428.81;4997800;28;45360;-39
2023/05/14 05:34:26;;;;;;;;;18.75;15.75;;;;;20.39;44.14;101437.56;4997899;28;45537;-39
2023/05/14 05:36:51;;;;;;;;;13.00;13.00;;;;;20.40;44.53;101435.78;4997935;28;56089;-39
2023/05/14 05:39:17;;;;;;;;;16.67;16.33;;;;;20.40;44.22;101435.78;5003356;28;55413;-40
2023/05/14 05:41:43;;;;;;;;;14.50;13.50;;;;;20.40;44.33;101443.66;5005642;28;45158;-40
2023/05/14 05:44:08;;;;;;;;;13.25;13.25;;;;;20.42;44.04;101459.41;4997915;28;46072;-40
2023/05/14 05:46:34;;;;;;;;;13.50;12.25;;;;;20.40;44.13;101456.81;4997109;28;45694;-38
2023/05/14 05:48:59;;;;;;;;;15.75;14.25;;;;;20.41;44.54;101455.06;4997290;28;45567;-39
2023/05/14 05:51:24;;;;;;;;;13.25;13.00;;;;;20.39;44.31;101456.00;4997401;28;45685;-39
2023/05/14 05:53:50;;;;;;;;;18.50;16.00;;;;;20.40;43.92;101451.56;4996891;28;45506;-39
2023/05/14 05:56:16;;;;;;;;;11.75;11.75;;;;;20.39;44.28;101457.78;4997958;28;46015;-39
2023/05/14 05:58:41;;;;;;;;;13.67;13.67;;;;;20.39;44.00;101453.34;5002411;28;61673;-39
2023/05/14 06:01:07;;;;;;;;;16.25;15.25;;;;;20.38;43.86;101456.91;5003230;28;45352;-40
2023/05/14 06:03:32;;;;;;;;;16.50;14.50;;;;;20.37;44.09;101462.25;5003581;28;45456;-39
2023/05/14 06:05:58;;;;;;;;;14.00;12.50;;;;;20.38;44.24;101464.81;5004017;28;45319;-40
2023/05/14 06:08:23;;;;;;;;;14.00;12.00;;;;;20.38;43.94;101467.44;5003313;28;45446;-38
2023/05/14 06:10:48;;;;;;;;;20.75;16.75;;;;;20.38;44.14;101470.06;5002552;28;45288;-38
2023/05/14 06:13:14;;;;;;;;;6.00;4.25;;;;;20.39;44.00;101474.41;5005169;28;45477;-39
2023/05/14 06:15:39;;;;;;;;;18.50;14.75;;;;;20.39;44.21;101474.41;5017755;28;45154;-39
2023/05/14 06:18:04;;;;;;;;;18.00;15.00;;;;;20.40;44.42;101475.25;5003803;28;45467;-39
2023/05/14 06:20:30;;;;;;;;;16.25;13.25;;;;;20.37;44.36;101476.25;5003754;28;45210;-39
2023/05/14 06:22:55;;;;;;;;;17.50;15.50;;;;;20.38;43.99;101479.75;5003699;28;45370;-39
2023/05/14 06:25:20;;;;;;;;;17.00;15.25;;;;;20.38;44.07;101487.66;5004125;28;47725;-38
2023/05/14 06:27:46;;;;;;;;;17.00;15.00;;;;;20.39;44.12;101492.84;5003891;28;55726;-38
2023/05/14 06:30:11;;;;;;;;;14.50;12.50;;;;;20.38;43.95;101495.56;5004481;28;45289;-38
2023/05/14 06:32:37;;;;;;;;;18.75;14.00;;;;;20.37;44.16;101494.69;5000310;28;46348;-38
2023/05/14 06:35:03;;;;;;;;;15.67;13.67;;;;;20.36;44.40;101492.97;5000075;28;58130;-38
2023/05/14 06:37:28;;;;;;;;;16.50;14.00;;;;;20.37;44.54;101494.69;5001076;28;45292;-38
2023/05/14 06:39:53;;;;;;;;;15.25;13.25;;;;;20.38;44.28;101496.41;5003537;28;45312;-38
2023/05/14 06:42:18;;;;;;;;;15.67;14.00;;;;;20.38;44.35;101501.66;5002281;28;62371;-38
2023/05/14 06:44:44;;;;;;;;;13.33;13.33;;;;;20.38;44.32;101492.94;5002712;28;62424;-38
2023/05/14 06:47:09;;;;;;;;;13.00;12.50;;;;;20.38;44.11;101496.41;4998834;28;45336;-38
2023/05/14 06:49:35;;;;;;;;;14.25;12.50;;;;;20.38;44.45;101503.47;5004954;28;45236;-39
2023/05/14 06:52:01;;;;;;;;;17.75;15.75;;;;;20.38;43.94;101501.66;5012647;28;45424;-38
2023/05/14 06:54:26;;;;;;;;;16.25;14.00;;;;;20.37;44.46;101497.31;5011044;28;45413;-39
2023/05/14 06:56:52;;;;;;;;;18.50;16.00;;;;;20.38;44.25;101492.94;5008258;28;45331;-38
2023/05/14 06:59:17;;;;;;;;;16.25;14.50;;;;;20.37;44.02;101494.69;5005346;28;45382;-39
2023/05/14 07:01:43;;;;;;;;;17.33;12.33;;;;;20.38;43.99;101492.94;5003259;28;68982;-38
2023/05/14 07:04:08;;;;;;;;;15.25;12.25;;;;;20.37;44.52;101488.59;5004001;28;45757;-39
2023/05/14 07:06:33;;;;;;;;;18.50;15.75;;;;;20.36;44.41;101490.34;5004196;28;45289;-38
2023/05/14 07:09:00;;;;;;;;;16.00;14.00;;;;;20.36;44.40;101492.97;5002239;28;45584;-39
2023/05/14 07:11:25;;;;;;;;;12.50;12.50;;;;;20.38;44.27;101501.66;4997680;28;45547;-38
2023/05/14 07:13:51;;;;;;;;;13.25;13.25;;;;;20.38;44.09;101495.56;4998984;28;45202;-39
2023/05/14 07:16:16;;;;;;;;;16.00;14.50;;;;;20.37;44.30;101491.22;5000448;28;59696;-39
2023/05/14 07:18:44;;;;;;;;;15.25;14.75;;;;;20.39;44.13;101492.00;5002629;28;45390;-38
2023/05/14 07:21:10;;;;;;;;;15.00;13.50;;;;;20.38;44.33;101496.41;5002850;28;45481;-38
2023/05/14 07:23:37;;;;;;;;;16.25;15.00;;;;;20.37;43.96;101497.31;5003476;28;45459;-38
2023/05/14 07:26:03;;;;;;;;;16.50;15.50;;;;;20.38;44.27;101500.81;5003829;28;45265;-38
2023/05/14 07:28:29;;;;;;;;;18.75;15.00;;;;;20.39;44.37;101502.53;5010823;28;45647;-39
2023/05/14 07:30:54;;;;;;;;;14.75;13.25;;;;;20.37;44.18;101507.84;5011665;28;45799;-39
2023/05/14 07:33:20;;;;;;;;;16.75;14.50;;;;;20.37;44.07;101499.13;5006212;28;45706;-38
2023/05/14 07:35:45;;;;;;;;;16.25;14.50;;;;;20.38;44.23;101506.09;5005425;28;45298;-38
2023/05/14 07:38:11;;;;;;;;;15.25;13.25;;;;;20.38;44.30;101506.09;5005104;28;45539;-39
2023/05/14 07:40:36;;;;;;;;;16.75;15.50;;;;;20.37;44.06;101509.66;5005108;28;50353;-39
2023/05/14 07:43:01;;;;;;;;;18.33;15.67;;;;;20.37;44.08;101510.47;5004671;28;58737;-39
2023/05/14 07:45:27;;;;;;;;;13.00;12.00;;;;;20.37;44.50;101505.22;5004883;28;45423;-38
2023/05/14 07:47:52;;;;;;;;;18.00;16.50;;;;;20.38;44.29;101511.34;5005505;28;45503;-38
2023/05/14 07:50:18;;;;;;;;;19.33;16.00;;;;;20.38;44.35;101506.94;5004092;28;60002;-38
2023/05/14 07:52:44;;;;;;;;;19.00;15.75;;;;;20.39;44.12;101511.28;5004375;28;45250;-38
2023/05/14 07:55:09;;;;;;;;;16.25;13.25;;;;;20.39;44.33;101507.81;5004730;28;45414;-38
2023/05/14 07:57:34;;;;;;;;;18.25;17.25;;;;;20.38;44.34;101500.81;5000269;28;45234;-39
2023/05/14 08:00:00;;;;;;;;;18.00;15.50;;;;;20.37;44.33;101499.94;5003700;28;46593;-39
2023/05/14 08:02:28;;;;;;;;;14.25;14.25;;;;;20.37;44.23;101499.94;5004253;28;45366;-39
2023/05/14 08:04:54;;;;;;;;;17.50;16.00;;;;;20.38;44.11;101501.66;5005192;28;45362;-41
2023/05/14 08:07:20;;;;;;;;;13.75;12.00;;;;;20.36;44.26;101500.88;5004677;28;45621;-41
2023/05/14 08:09:45;;;;;;;;;11.75;11.75;;;;;20.37;44.34;101497.31;5000624;28;47134;-39
2023/05/14 08:12:11;;;;;;;;;18.00;14.75;;;;;20.38;44.20;101504.31;5002639;28;45229;-39
2023/05/14 08:14:36;;;;;;;;;16.25;15.00;;;;;20.39;43.98;101497.28;4999262;28;45219;-38
2023/05/14 08:17:02;;;;;;;;;17.67;15.67;;;;;20.37;44.28;101505.22;4998555;28;50797;-39
2023/05/14 08:19:27;;;;;;;;;16.50;15.00;;;;;20.39;44.37;101507.81;4998837;28;47024;-39
2023/05/14 08:21:53;;;;;;;;;17.25;16.25;;;;;20.38;43.99;101506.09;4998452;28;45393;-41
2023/05/14 08:24:18;;;;;;;;;20.00;17.25;;;;;20.38;44.40;101508.72;4998975;28;45315;-38
2023/05/14 08:26:44;;;;;;;;;21.75;17.25;;;;;20.37;44.26;101510.47;5002339;28;45601;-39
2023/05/14 08:29:09;;;;;;;;;17.67;16.00;;;;;20.39;44.67;101513.06;5004255;28;51904;-39
2023/05/14 08:31:34;;;;;;;;;19.75;16.50;;;;;20.37;43.95;101507.84;5008753;28;45423;-40
2023/05/14 08:34:00;;;;;;;;;17.00;14.25;;;;;20.37;44.13;101507.00;5014040;28;45320;-39
